Terminal Aerodrome Forecast
Issued by NWS Memphis, TN

Home | Current Version | Previous Version | Text Only | Print | Product List | Glossary On
Versions: 1 2 3 4 5 6 7 8 9 10 11 12
119
FTUS44 KMEG 030525
TAFJBR
TAF
KJBR 030525Z 0306/0406 05004KT P6SM BKN120 BKN250
     FM031600 08007KT P6SM VCSH BKN060 OVC100
     FM032000 08008KT P6SM -RA SCT015 OVC035
     FM032200 08008KT 6SM -RA BR SCT009 OVC015
     FM040200 06008KT 5SM -RA BR BKN009 OVC015=

USA.gov is the U.S. government's official web portal to all federal, state and local government web resources and services.